Time;durP1;ratioP1;P1;durP2;ratioP2;P2;SDS_P1;SDS_P2;PMS_P1;PMS_P2;Temp;Humidity;BMP_temperature;BMP_pressure;BME280_temperature;BME280_humidity;BME280_pressure;Samples;Min_cycle;Max_cycle;Signal;HPM_P1;HPM_P2
2022/05/10 00:01:37;;;;;;;0.20;0.20;;;;;;;15.26;68.69;100592.34;5112700;28;20020;-89
2022/05/10 00:04:05;;;;;;;0.20;0.20;;;;;;;15.31;68.03;100600.41;5095498;28;20087;-87
2022/05/10 00:06:42;;;;;;;0.20;0.20;;;;;;;15.31;67.70;100598.41;5096253;28;20453;-89
2022/05/10 00:09:09;;;;;;;0.20;0.20;;;;;;;15.28;67.89;100601.16;5095139;28;20063;-87
2022/05/10 00:11:37;;;;;;;0.20;0.20;;;;;;;15.31;67.53;100586.41;5096356;28;20483;-89
2022/05/10 00:14:06;;;;;;;0.20;0.20;;;;;;;15.33;67.45;100586.81;5111615;28;20074;-89
2022/05/10 00:16:37;;;;;;;0.20;0.20;;;;;;;15.19;67.19;100582.69;5112121;28;20020;-89
2022/05/10 00:19:03;;;;;;;0.20;0.20;;;;;;;15.22;67.84;100586.69;5097242;28;20032;-88
2022/05/10 00:21:34;;;;;;;0.20;0.20;;;;;;;15.45;66.95;100594.97;5112629;28;20032;-87
2022/05/10 00:24:06;;;;;;;0.20;0.20;;;;;;;15.35;66.81;100578.84;5112377;28;20459;-88
2022/05/10 00:26:32;;;;;;;0.20;0.20;;;;;;;15.24;66.90;100580.72;5112201;28;20024;-87
2022/05/10 00:28:57;;;;;;;0.20;0.20;;;;;;;15.14;67.48;100580.22;5111932;28;20059;-89
2022/05/10 00:31:23;;;;;;;0.20;0.20;;;;;;;15.20;67.16;100575.88;5111916;28;20475;-89
2022/05/10 00:33:49;;;;;;;0.20;0.20;;;;;;;15.10;66.65;100578.56;5112428;28;20028;-88
2022/05/10 00:36:16;;;;;;;0.20;0.20;;;;;;;15.15;66.54;100579.03;5111833;28;20066;-87
2022/05/10 00:38:44;;;;;;;0.20;0.20;;;;;;;15.11;66.67;100575.38;5112314;28;20028;-87
2022/05/10 00:41:22;;;;;;;0.20;0.20;;;;;;;15.27;66.20;100572.34;5111704;28;20036;-88
2022/05/10 00:43:53;;;;;;;0.20;0.20;;;;;;;15.19;65.87;100571.47;5111984;28;20511;-87
2022/05/10 00:46:28;;;;;;;0.20;0.20;;;;;;;15.14;67.13;100568.22;5095098;28;20081;-88
2022/05/10 00:49:20;;;;;;;0.20;0.20;;;;;;;15.25;66.50;100565.50;5112159;28;20170;-87
2022/05/10 00:51:54;;;;;;;0.20;0.20;;;;;;;15.25;66.74;100571.13;5111509;28;20032;-87
2022/05/10 00:54:49;;;;;;;0.20;0.20;;;;;;;15.22;67.21;100577.47;5112121;28;20036;-87
2022/05/10 00:57:32;;;;;;;0.20;0.20;;;;;;;15.16;66.98;100566.63;5091854;28;20047;-89
2022/05/10 01:00:20;;;;;;;0.20;0.20;;;;;;;15.25;66.78;100563.50;5111715;28;20463;-87
2022/05/10 01:02:52;;;;;;;0.20;0.20;;;;;;;15.21;67.04;100554.25;5087373;28;20139;-87
2022/05/10 01:05:25;;;;;;;0.20;0.20;;;;;;;15.16;67.79;100569.41;5111216;28;20024;-88
2022/05/10 01:08:21;;;;;;;0.20;0.20;;;;;;;15.27;67.46;100563.13;5111693;28;20032;-86
2022/05/10 01:10:59;;;;;;;0.20;0.20;;;;;;;14.97;68.08;100544.41;5110974;28;20085;-87
2022/05/10 01:14:08;;;;;;;0.20;0.20;;;;;;;15.06;68.29;100569.31;5111488;28;20051;-89
2022/05/10 01:16:36;;;;;;;0.20;0.20;;;;;;;14.99;67.62;100566.44;5085817;28;20032;-87
2022/05/10 01:19:02;;;;;;;0.20;0.20;;;;;;;15.06;67.73;100572.91;5094113;28;20043;-87
2022/05/10 01:21:41;;;;;;;0.20;0.20;;;;;;;15.00;67.49;100574.47;5093780;28;20032;-88
2022/05/10 01:24:21;;;;;;;0.20;0.20;;;;;;;15.04;67.39;100575.31;5110832;28;20059;-87
2022/05/10 01:27:12;;;;;;;0.20;0.20;;;;;;;15.02;67.40;100579.66;5111472;28;20459;-88
2022/05/10 01:29:43;;;;;;;0.20;0.20;;;;;;;15.17;66.52;100571.03;5110483;28;20486;-86
2022/05/10 01:35:06;;;;;;;0.20;0.20;;;;;;;15.05;66.33;100573.31;5095339;28;20093;-86
2022/05/10 01:37:36;;;;;;;0.20;0.20;;;;;;;15.00;66.73;100565.25;5093757;28;20077;-86
2022/05/10 01:40:12;;;;;;;0.20;0.20;;;;;;;14.93;66.24;100568.78;5110516;28;20115;-87
2022/05/10 01:42:48;;;;;;;0.20;0.20;;;;;;;14.90;65.99;100572.34;5093437;28;20028;-88
2022/05/10 01:45:29;;;;;;;0.20;0.20;;;;;;;14.83;65.78;100566.66;5092880;28;20031;-89
2022/05/10 01:48:03;;;;;;;0.20;0.20;;;;;;;14.93;65.48;100568.78;5110311;28;20027;-87
2022/05/10 01:50:54;;;;;;;0.20;0.20;;;;;;;15.02;65.32;100565.66;5094481;28;20091;-86
2022/05/10 01:53:37;;;;;;;0.20;0.20;;;;;;;14.91;65.54;100562.75;5110610;28;20035;-87
2022/05/10 01:56:13;;;;;;;0.20;0.20;;;;;;;14.84;65.74;100562.66;5110539;28;20050;-86
2022/05/10 01:58:40;;;;;;;0.20;0.20;;;;;;;14.76;66.07;100555.38;5110238;28;20020;-86
2022/05/10 02:01:09;;;;;;;0.20;0.20;;;;;;;14.72;65.38;100560.13;5110115;28;20085;-87
2022/05/10 02:04:15;;;;;;;0.20;0.20;;;;;;;14.76;66.02;100566.59;5110402;28;20024;-86
2022/05/10 02:11:07;;;;;;;0.20;0.20;;;;;;;14.73;65.55;100556.13;5009582;28;20084;-86
2022/05/10 02:14:28;;;;;;;0.20;0.20;;;;;;;14.68;66.03;100551.69;5006602;28;20516;-86
2022/05/10 02:19:59;;;;;;;0.20;0.20;;;;;;;14.71;65.35;100550.94;4935170;29;20043;-87
2022/05/10 02:26:11;;;;;;;0.20;0.20;;;;;;;14.72;64.73;100551.72;4934935;29;20051;-85
2022/05/10 02:28:47;;;;;;;0.20;0.20;;;;;;;14.59;65.24;100554.75;4879753;29;20045;-85
2022/05/10 02:34:59;;;;;;;0.20;0.20;;;;;;;14.54;64.53;100541.13;4892437;29;20568;-85
2022/05/10 02:41:32;;;;;;;0.20;0.20;;;;;;;14.60;64.60;100539.59;4972886;28;20042;-86
2022/05/10 02:44:47;;;;;;;0.20;0.20;;;;;;;14.53;64.42;100549.88;4973268;28;20027;-85
2022/05/10 02:47:48;;;;;;;0.20;0.20;;;;;;;14.43;65.10;100545.72;5002704;28;20045;-85
2022/05/10 02:53:49;;;;;;;0.20;0.20;;;;;;;14.42;63.51;100538.53;5080611;28;20172;-85
2022/05/10 02:56:28;;;;;;;0.20;0.20;;;;;;;14.32;63.91;100553.97;5092679;28;20028;-86
2022/05/10 02:58:56;;;;;;;0.20;0.20;;;;;;;14.32;64.29;100544.78;5092919;28;20400;-87
2022/05/10 03:01:53;;;;;;;0.20;0.20;;;;;;;14.55;63.57;100536.31;5109886;28;20528;-84
2022/05/10 03:04:19;;;;;;;0.20;0.20;;;;;;;14.57;63.57;100531.94;5111496;28;20024;-84
2022/05/10 03:06:47;;;;;;;0.20;0.20;;;;;;;14.51;63.55;100525.06;5095585;28;20028;-82
2022/05/10 03:09:14;;;;;;;0.20;0.20;;;;;;;14.39;63.85;100536.50;5093620;28;20024;-86
2022/05/10 03:11:40;;;;;;;0.20;0.20;;;;;;;14.42;63.90;100541.31;5108990;28;20028;-86
2022/05/10 03:14:08;;;;;;;0.20;0.20;;;;;;;14.37;60.53;100536.06;5109501;28;20036;-85
2022/05/10 03:16:35;;;;;;;0.20;0.20;;;;;;;14.40;62.33;100540.91;5092821;28;20052;-87
2022/05/10 03:19:04;;;;;;;0.20;0.20;;;;;;;14.51;61.97;100524.28;5109671;28;20356;-87
2022/05/10 03:21:32;;;;;;;0.20;0.20;;;;;;;14.50;62.81;100534.66;5093732;28;20036;-85
2022/05/10 03:23:58;;;;;;;0.20;0.20;;;;;;;14.45;62.56;100537.78;5109700;28;20016;-87
2022/05/10 03:26:27;;;;;;;0.20;0.20;;;;;;;14.46;62.09;100533.78;5109610;28;20111;-87
2022/05/10 03:28:53;;;;;;;0.20;0.20;;;;;;;14.41;62.04;100534.13;5108881;28;20031;-86
2022/05/10 03:31:22;;;;;;;0.20;0.20;;;;;;;14.44;62.35;100543.75;5091877;28;20028;-87
2022/05/10 03:34:53;;;;;;;0.20;0.20;;;;;;;14.41;62.71;100543.31;5108689;28;20028;-88
2022/05/10 03:36:39;;;;;;;0.20;0.20;;;;;;;14.58;61.64;100541.16;5093044;28;20047;-86
2022/05/10 03:39:06;;;;;;;0.20;0.20;;;;;;;14.57;61.82;100548.75;5109050;28;20035;-86
2022/05/10 03:41:34;;;;;;;0.20;0.20;;;;;;;14.46;62.27;100544.97;5108954;28;20111;-86
2022/05/10 03:44:03;;;;;;;0.20;0.20;;;;;;;14.44;61.89;100544.56;5109257;28;20074;-85
2022/05/10 03:46:29;;;;;;;0.20;0.20;;;;;;;14.42;59.83;100553.31;5092170;28;20024;-86
2022/05/10 03:49:00;;;;;;;0.20;0.20;;;;;;;14.53;60.36;100555.47;5091753;28;20051;-87
2022/05/10 03:51:27;;;;;;;0.20;0.20;;;;;;;14.48;60.11;100556.63;5112232;28;20035;-87
2022/05/10 03:53:53;;;;;;;0.20;0.20;;;;;;;14.56;60.22;100547.13;5112270;28;20039;-86
2022/05/10 03:56:19;;;;;;;0.20;0.20;;;;;;;14.53;60.26;100555.47;5112887;28;20028;-86
2022/05/10 03:58:47;;;;;;;0.20;0.20;;;;;;;14.51;60.23;100558.69;5112449;28;20036;-87
2022/05/10 04:01:19;;;;;;;0.20;0.20;;;;;;;14.52;60.11;100559.47;5113024;28;20028;-86
2022/05/10 04:03:45;;;;;;;0.20;0.20;;;;;;;14.53;60.53;100566.69;5096799;28;20043;-87
2022/05/10 04:06:11;;;;;;;0.20;0.20;;;;;;;14.56;60.45;100555.53;5095267;28;20035;-86
2022/05/10 04:08:37;;;;;;;0.20;0.20;;;;;;;14.70;59.87;100552.13;5113043;28;20119;-86
2022/05/10 04:11:11;;;;;;;0.20;0.20;;;;;;;14.85;59.36;100561.47;5095442;28;20059;-87
2022/05/10 04:13:41;;;;;;;0.20;0.20;;;;;;;14.83;59.63;100572.25;5112919;28;20118;-87
2022/05/10 04:16:07;;;;;;;0.20;0.20;;;;;;;14.91;60.33;100576.75;5112270;28;20049;-86
2022/05/10 04:18:35;;;;;;;0.20;0.20;;;;;;;15.05;59.91;100574.13;5112111;28;20394;-87
2022/05/10 04:21:04;;;;;;;0.20;0.20;;;;;;;15.25;58.50;100573.94;5112534;28;20024;-86
2022/05/10 04:23:33;;;;;;;0.20;0.20;;;;;;;15.53;58.08;100567.78;5112533;28;20028;-86
2022/05/10 04:26:04;;;;;;;0.20;0.20;;;;;;;15.75;57.76;100578.00;5094881;28;20031;-85
2022/05/10 04:28:34;;;;;;;0.20;0.20;;;;;;;16.02;56.49;100578.59;5111715;28;20130;-88
2022/05/10 04:31:03;;;;;;;0.20;0.20;;;;;;;16.29;55.80;100578.38;5111227;28;20047;-87
2022/05/10 04:33:29;;;;;;;0.20;0.20;;;;;;;16.56;54.74;100582.53;5095148;28;20383;-89
2022/05/10 04:35:57;;;;;;;0.20;0.20;;;;;;;16.89;54.28;100587.13;5111914;28;20035;-87
2022/05/10 04:38:26;;;;;;;0.20;0.20;;;;;;;17.15;53.04;100588.81;5112196;28;20028;-86
2022/05/10 04:43:37;;;;;;;0.20;0.20;;;;;;;17.81;51.04;100591.34;5096041;28;20046;-87
2022/05/10 04:46:05;;;;;;;0.20;0.20;;;;;;;18.14;49.93;100597.72;5111644;28;20447;-86
2022/05/10 04:48:34;;;;;;;0.20;0.20;;;;;;;18.45;49.29;100591.22;5111378;28;20037;-85
2022/05/10 04:51:04;;;;;;;0.20;0.20;;;;;;;18.89;48.46;100589.88;5111787;28;20024;-85
2022/05/10 04:53:30;;;;;;;0.20;0.20;;;;;;;19.29;47.36;100593.31;5094239;28;20475;-85
2022/05/10 04:55:55;;;;;;;0.20;0.20;;;;;;;19.62;46.61;100583.44;5094167;28;20028;-85
2022/05/10 04:58:25;;;;;;;0.20;0.20;;;;;;;20.11;44.39;100596.31;5111264;28;20035;-85
2022/05/10 05:00:51;;;;;;;0.20;0.20;;;;;;;20.44;44.88;100591.13;5095146;28;20059;-84
2022/05/10 05:03:16;;;;;;;0.20;0.20;;;;;;;20.76;44.23;100592.81;5095167;28;20025;-84
2022/05/10 05:05:45;;;;;;;0.20;0.20;;;;;;;21.08;43.65;100581.88;5110911;28;20032;-83
2022/05/10 05:08:10;;;;;;;0.20;0.20;;;;;;;21.31;42.57;100601.00;5110943;28;20055;-82
2022/05/10 05:10:38;;;;;;;0.20;0.20;;;;;;;21.67;41.43;100603.25;5110730;28;20191;-85
2022/05/10 05:13:04;;;;;;;0.20;0.20;;;;;;;22.09;39.99;100598.13;5110798;28;20061;-82
2022/05/10 05:15:33;;;;;;;0.20;0.20;;;;;;;22.32;39.89;100603.81;5093630;28;20105;-84
2022/05/10 05:18:03;;;;;;;0.20;0.20;;;;;;;22.81;39.23;100604.06;5093688;28;20109;-83
2022/05/10 05:20:30;;;;;;;0.20;0.20;;;;;;;23.03;38.14;100609.31;5094882;28;20051;-84
2022/05/10 05:22:58;;;;;;;0.20;0.20;;;;;;;23.24;37.60;100603.97;5093807;28;20028;-85
2022/05/10 05:25:24;;;;;;;0.20;0.20;;;;;;;23.61;36.08;100609.63;5093672;28;20477;-82
2022/05/10 05:27:49;;;;;;;0.20;0.20;;;;;;;23.68;35.66;100604.59;5110542;28;20028;-84
2022/05/10 05:30:18;;;;;;;0.20;0.20;;;;;;;23.84;34.68;100611.53;5110196;28;20052;-85
2022/05/10 05:32:46;;;;;;;0.10;0.10;;;;;;;24.22;33.54;100608.91;5110747;28;20123;-81
2022/05/10 05:35:13;;;;;;;0.20;0.20;;;;;;;24.54;33.10;100614.56;5110342;28;20121;-85
2022/05/10 05:37:39;;;;;;;0.20;0.20;;;;;;;24.63;33.12;100599.69;5110365;28;20016;-85
2022/05/10 05:40:14;;;;;;;0.20;0.20;;;;;;;25.02;32.11;100609.91;5093277;28;20039;-85
2022/05/10 05:42:40;;;;;;;0.20;0.20;;;;;;;25.25;32.11;100616.63;5094406;28;20385;-88
2022/05/10 05:45:08;;;;;;;0.20;0.20;;;;;;;25.30;31.59;100590.41;5093648;28;20104;-84
2022/05/10 05:47:34;;;;;;;0.20;0.20;;;;;;;25.54;31.80;100616.50;5093661;28;20027;-85
2022/05/10 05:49:59;;;;;;;0.20;0.20;;;;;;;25.41;31.88;100624.22;5109934;28;20475;-83
2022/05/10 05:52:26;;;;;;;0.10;0.10;;;;;;;25.85;31.55;100613.91;5092845;28;20036;-87
2022/05/10 05:54:52;;;;;;;0.10;0.10;;;;;;;25.91;30.50;100606.38;5092900;28;20035;-87
2022/05/10 05:57:19;;;;;;;0.20;0.20;;;;;;;26.29;29.95;100611.19;5093341;28;20119;-87
2022/05/10 05:59:45;;;;;;;0.10;0.10;;;;;;;26.33;29.94;100615.50;5093036;28;20034;-87
2022/05/10 06:02:17;;;;;;;0.10;0.10;;;;;;;26.31;30.11;100586.66;5093049;28;20024;-85
2022/05/10 06:04:45;;;;;;;0.15;0.15;;;;;;;26.40;29.13;100623.00;5109724;28;20044;-86
2022/05/10 06:07:11;;;;;;;0.20;0.20;;;;;;;25.69;30.09;100611.94;5093044;28;20474;-86
2022/05/10 06:09:44;;;;;;;0.10;0.10;;;;;;;26.17;29.79;100612.03;5109895;28;20038;-87
2022/05/10 06:12:12;;;;;;;0.10;0.10;;;;;;;26.09;30.12;100612.25;5109420;28;20434;-86
2022/05/10 06:14:41;;;;;;;0.10;0.10;;;;;;;25.75;30.26;100610.16;5110116;28;20122;-86
2022/05/10 06:17:08;;;;;;;0.10;0.10;;;;;;;26.17;30.05;100623.44;5092467;28;20039;-85
2022/05/10 06:19:38;;;;;;;0.10;0.10;;;;;;;26.36;29.26;100613.75;5093676;28;20108;-85
2022/05/10 06:22:08;;;;;;;0.10;0.10;;;;;;;25.01;30.90;100624.63;5109047;28;20020;-88
2022/05/10 06:24:34;;;;;;;0.10;0.10;;;;;;;25.57;30.60;100627.00;5094067;28;20032;-86
2022/05/10 06:27:01;;;;;;;0.10;0.10;;;;;;;26.42;29.67;100628.25;5109579;28;20595;-86
2022/05/10 06:29:29;;;;;;;0.20;0.20;;;;;;;26.09;29.52;100625.72;5109087;28;20044;-84
2022/05/10 06:31:54;;;;;;;0.20;0.20;;;;;;;25.68;29.88;100632.34;5109418;28;20028;-84
2022/05/10 06:34:24;;;;;;;0.10;0.10;;;;;;;26.45;29.48;100633.06;5109408;28;20405;-85
2022/05/10 06:36:52;;;;;;;0.20;0.20;;;;;;;27.01;28.88;100635.09;5109482;28;20107;-86
2022/05/10 06:39:18;;;;;;;0.20;0.20;;;;;;;27.39;28.39;100637.72;5109080;28;20028;-88
2022/05/10 06:41:43;;;;;;;0.10;0.10;;;;;;;27.52;28.05;100637.63;5092427;28;20110;-92
2022/05/10 06:44:14;;;;;;;0.10;0.10;;;;;;;27.55;28.04;100634.63;5109157;28;20036;-89
2022/05/10 06:46:40;;;;;;;0.20;0.20;;;;;;;28.33;26.91;100642.03;5109883;28;20024;-89
2022/05/10 06:49:06;;;;;;;0.10;0.10;;;;;;;28.78;26.34;100642.56;5109282;28;20451;-91
2022/05/10 06:51:33;;;;;;;0.10;0.10;;;;;;;28.85;26.61;100642.22;5092947;28;20039;-92
2022/05/10 06:54:00;;;;;;;0.10;0.10;;;;;;;29.19;25.22;100627.56;5093963;28;20035;-88
2022/05/10 06:56:25;;;;;;;0.10;0.10;;;;;;;28.26;26.74;100648.06;5092337;28;20028;-83
2022/05/10 06:58:51;;;;;;;0.10;0.10;;;;;;;28.84;27.20;100649.22;5091937;28;20436;-84
2022/05/10 07:01:17;;;;;;;0.10;0.10;;;;;;;29.33;26.50;100648.22;5092371;28;20032;-85
2022/05/10 07:03:48;;;;;;;0.10;0.10;;;;;;;29.06;26.28;100641.28;5091958;28;20081;-86
2022/05/10 07:06:16;;;;;;;0.10;0.10;;;;;;;29.63;25.16;100650.06;5109094;28;20020;-86
2022/05/10 07:08:42;;;;;;;0.10;0.10;;;;;;;29.08;25.76;100655.91;5109291;28;20028;-86
2022/05/10 07:11:11;;;;;;;0.10;0.10;;;;;;;28.15;26.54;100659.94;5109225;28;20352;-83
2022/05/10 07:13:37;;;;;;;0.10;0.10;;;;;;;27.40;26.99;100662.19;5093038;28;20390;-83
2022/05/10 07:16:03;;;;;;;0.10;0.10;;;;;;;27.59;27.18;100663.88;5093113;28;20030;-83
2022/05/10 07:18:31;;;;;;;0.10;0.10;;;;;;;28.17;26.77;100668.84;5109651;28;20043;-85
2022/05/10 07:20:57;;;;;;;0.10;0.10;;;;;;;29.02;25.79;100654.97;5109281;28;20028;-87
2022/05/10 07:23:26;;;;;;;0.10;0.10;;;;;;;28.52;26.58;100654.31;5092336;28;20054;-86
2022/05/10 07:25:58;;;;;;;0.10;0.10;;;;;;;27.71;27.46;100638.53;5096350;28;20024;-85
2022/05/10 07:28:29;;;;;;;0.10;0.10;;;;;;;27.98;26.92;100663.56;5097629;28;20028;-83
2022/05/10 07:30:56;;;;;;;0.10;0.10;;;;;;;28.85;26.64;100653.69;5113789;28;20059;-86
2022/05/10 07:33:25;;;;;;;0.10;0.10;;;;;;;29.47;26.04;100654.06;5097067;28;20032;-87
2022/05/10 07:38:39;;;;;;;0.10;0.10;;;;;;;29.63;25.63;100650.06;5097358;28;20039;-88
2022/05/10 07:41:11;;;;;;;0.10;0.10;;;;;;;29.29;25.24;100662.69;5095966;28;20039;-84
2022/05/10 07:43:38;;;;;;;0.10;0.10;;;;;;;27.89;26.95;100658.59;5092665;28;20043;-87
2022/05/10 07:46:07;;;;;;;0.10;0.10;;;;;;;28.24;26.27;100659.19;5096931;28;20382;-87
2022/05/10 07:48:33;;;;;;;0.10;0.10;;;;;;;28.00;27.30;100652.44;5112240;28;20032;-86
2022/05/10 07:51:03;;;;;;;0.10;0.10;;;;;;;28.14;27.28;100655.50;5112519;28;20024;-84
2022/05/10 07:53:31;;;;;;;0.10;0.10;;;;;;;28.10;27.09;100663.44;5112810;28;20579;-86
2022/05/10 07:56:00;;;;;;;0.10;0.10;;;;;;;27.52;27.11;100655.56;5095209;28;20028;-84
2022/05/10 07:58:28;;;;;;;0.10;0.10;;;;;;;28.52;25.93;100654.31;5112211;28;20055;-84
2022/05/10 08:00:54;;;;;;;0.10;0.10;;;;;;;27.89;26.36;100658.59;5095241;28;20066;-84
2022/05/10 08:03:27;;;;;;;0.10;0.10;;;;;;;28.24;26.34;100661.25;5095152;28;20020;-87
2022/05/10 08:05:59;;;;;;;0.10;0.10;;;;;;;28.86;25.98;100646.66;5096206;28;20055;-84
2022/05/10 08:08:29;;;;;;;0.10;0.10;;;;;;;30.14;24.67;100654.91;5112043;28;20024;-87
2022/05/10 08:10:56;;;;;;;0.10;0.10;;;;;;;30.35;24.00;100649.34;5112050;28;20032;-86
2022/05/10 08:13:28;;;;;;;0.10;0.10;;;;;;;30.58;24.02;100662.91;5113225;28;20036;-84
2022/05/10 08:15:54;;;;;;;0.10;0.10;;;;;;;30.84;23.16;100654.59;5112120;28;20024;-84
2022/05/10 08:18:21;;;;;;;0.10;0.10;;;;;;;29.81;24.18;100654.13;5111999;28;20119;-87
2022/05/10 08:20:48;;;;;;;0.10;0.10;;;;;;;29.67;24.58;100662.16;5094875;28;20036;-83
2022/05/10 08:23:24;;;;;;;0.10;0.10;;;;;;;29.65;24.86;100647.50;5111751;28;20027;-87
2022/05/10 08:25:54;;;;;;;0.13;0.13;;;;;;;29.99;25.15;100660.56;5096441;28;20102;-86
2022/05/10 08:28:20;;;;;;;0.10;0.10;;;;;;;30.89;23.63;100655.97;5096604;28;20073;-86
2022/05/10 08:30:47;;;;;;;0.13;0.13;;;;;;;30.68;23.68;100649.25;5095844;28;20047;-87
2022/05/10 08:33:19;;;;;;;0.10;0.10;;;;;;;29.41;24.90;100650.28;5095127;28;20032;-87
2022/05/10 08:35:46;;;;;;;0.10;0.10;;;;;;;30.22;24.76;100659.03;5110383;28;20028;-86
2022/05/10 08:38:12;;;;;;;0.10;0.10;;;;;;;29.86;24.62;100650.59;5111549;28;20475;-86
2022/05/10 08:41:12;;;;;;;0.10;0.10;;;;;;;30.53;23.32;100657.84;5094340;28;20032;-83
2022/05/10 08:44:05;;;;;;;0.10;0.10;;;;;;;30.24;23.73;100659.31;5090927;28;20039;-83
2022/05/10 08:46:42;;;;;;;0.10;0.10;;;;;;;29.56;24.35;100661.84;5111578;28;20032;-84
2022/05/10 08:49:19;;;;;;;0.10;0.10;;;;;;;29.08;24.61;100658.75;5094286;28;20035;-87
2022/05/10 08:51:47;;;;;;;0.10;0.10;;;;;;;29.22;24.67;100651.59;5111188;28;20021;-87
2022/05/10 08:54:16;;;;;;;0.10;0.10;;;;;;;29.58;24.29;100653.59;5093969;28;20040;-85
2022/05/10 08:56:53;;;;;;;0.10;0.10;;;;;;;29.73;24.44;100654.47;5111196;28;20034;-85
2022/05/10 08:59:27;;;;;;;0.10;0.10;;;;;;;29.82;24.19;100652.84;5111820;28;20043;-84
2022/05/10 09:02:01;;;;;;;0.10;0.10;;;;;;;29.93;24.03;100650.22;5111486;28;20378;-86
2022/05/10 09:04:36;;;;;;;0.10;0.10;;;;;;;30.51;23.05;100648.91;5110900;28;20024;-87
2022/05/10 09:07:05;;;;;;;0.10;0.10;;;;;;;30.93;22.29;100656.56;5111413;28;20071;-84
2022/05/10 09:09:53;;;;;;;0.10;0.10;;;;;;;30.77;23.18;100654.97;5111303;28;20047;-85
2022/05/10 09:12:25;;;;;;;0.13;0.13;;;;;;;30.83;23.13;100641.50;5093668;28;20016;-84
2022/05/10 09:15:00;;;;;;;0.10;0.10;;;;;;;31.04;22.52;100662.53;5111524;28;20055;-85
2022/05/10 09:17:36;;;;;;;0.17;0.17;;;;;;;32.18;21.55;100661.06;5095371;28;20020;-85
2022/05/10 09:20:11;;;;;;;0.10;0.10;;;;;;;32.52;21.22;100657.34;5095404;28;20028;-83
2022/05/10 09:22:39;;;;;;;0.10;0.10;;;;;;;32.82;21.15;100657.19;5110692;28;20028;-83
2022/05/10 09:25:41;;;;;;;0.10;0.10;;;;;;;33.15;21.00;100661.75;5110553;28;20024;-82
2022/05/10 09:28:55;;;;;;;0.10;0.10;;;;;;;32.88;21.26;100660.13;5093244;28;20123;-83
2022/05/10 09:37:35;;;;;;;0.10;0.10;;;;;;;33.14;20.91;100655.19;5094824;28;20195;-82
2022/05/10 09:40:26;;;;;;;0.10;0.10;;;;;;;33.52;20.73;100661.88;5111240;28;20037;-87
2022/05/10 09:43:09;;;;;;;0.10;0.10;;;;;;;33.14;21.36;100655.19;5111217;28;20304;-84
2022/05/10 09:45:40;;;;;;;0.10;0.10;;;;;;;33.40;21.04;100643.66;5110681;28;20430;-86
2022/05/10 09:48:09;;;;;;;0.10;0.10;;;;;;;32.64;21.28;100649.63;5109267;28;20028;-87
2022/05/10 09:50:52;;;;;;;0.10;0.10;;;;;;;32.23;21.84;100652.50;5109986;28;20031;-86
2022/05/10 09:53:29;;;;;;;0.10;0.10;;;;;;;31.37;23.04;100644.31;5092947;28;20097;-86
2022/05/10 09:56:24;;;;;;;0.10;0.10;;;;;;;30.62;23.15;100637.66;5109955;28;20032;-83
2022/05/10 09:58:56;;;;;;;0.10;0.10;;;;;;;30.91;23.41;100630.44;5083377;28;20029;-86
2022/05/10 10:01:48;;;;;;;0.10;0.10;;;;;;;30.45;23.93;100639.41;5094395;28;20028;-87
2022/05/10 10:04:25;;;;;;;0.10;0.10;;;;;;;29.44;25.48;100632.09;5094337;28;20095;-86
2022/05/10 10:07:22;;;;;;;0.10;0.10;;;;;;;28.66;26.20;100624.28;5110084;28;20115;-83
2022/05/10 10:09:55;;;;;;;0.10;0.10;;;;;;;29.36;25.74;100630.06;5083927;28;20044;-83
2022/05/10 10:12:40;;;;;;;0.10;0.10;;;;;;;29.32;25.79;100627.34;5093958;28;20020;-86
2022/05/10 10:15:34;;;;;;;0.10;0.10;;;;;;;30.25;24.75;100623.59;5109520;28;20042;-86
2022/05/10 10:18:09;;;;;;;0.10;0.10;;;;;;;30.69;24.19;100620.09;5109769;28;20063;-85
2022/05/10 10:20:41;;;;;;;0.10;0.10;;;;;;;31.14;24.61;100620.91;5094030;28;20024;-82
2022/05/10 10:23:34;;;;;;;0.10;0.10;;;;;;;31.02;23.72;100624.88;5109888;28;20489;-83
2022/05/10 10:26:07;;;;;;;0.10;0.10;;;;;;;31.06;23.66;100616.88;5086719;28;20067;-84
2022/05/10 10:29:07;;;;;;;0.10;0.10;;;;;;;30.49;24.30;100617.03;5109250;28;20181;-85
2022/05/10 10:31:51;;;;;;;0.20;0.20;;;;;;;30.02;24.63;100612.88;5093077;28;20040;-81
2022/05/10 10:34:26;;;;;;;0.10;0.10;;;;;;;30.03;24.89;100611.59;5093615;28;20111;-85
2022/05/10 10:37:11;;;;;;;0.20;0.20;;;;;;;29.33;25.59;100608.09;5092976;28;20027;-82
2022/05/10 10:39:59;;;;;;;0.10;0.10;;;;;;;29.09;25.87;100600.22;5092874;28;20088;-82
2022/05/10 10:42:39;;;;;;;0.10;0.10;;;;;;;28.86;26.20;100600.84;5109829;28;20111;-88
2022/05/10 10:45:12;;;;;;;0.10;0.10;;;;;;;27.87;27.61;100606.81;5109581;28;20109;-84
2022/05/10 10:47:44;;;;;;;;;;;;;;;28.03;28.03;100602.91;5092666;28;20114;-88
2022/05/10 10:50:19;;;;;;;0.10;0.10;;;;;;;28.43;28.41;100605.66;5092790;28;19951;-85
2022/05/10 10:52:51;;;;;;;0.10;0.10;;;;;;;28.80;27.96;100594.19;5109701;28;20032;-83
2022/05/10 10:55:21;;;;;;;0.10;0.10;;;;;;;28.28;28.50;100596.06;5093312;28;20076;-82
2022/05/10 10:58:12;;;;;;;0.10;0.10;;;;;;;28.63;29.08;100597.38;5109445;28;20040;-85
2022/05/10 11:01:12;;;;;;;0.10;0.10;;;;;;;29.27;27.25;100595.69;5113317;28;20028;-82
2022/05/10 11:03:46;;;;;;;0.20;0.20;;;;;;;29.57;26.70;100588.94;5114065;28;20110;-86
2022/05/10 11:06:18;;;;;;;0.10;0.10;;;;;;;27.94;29.40;100583.63;5113291;28;20031;-81
2022/05/10 11:09:25;;;;;;;0.10;0.10;;;;;;;28.84;28.50;100577.63;5113896;28;20032;-84
2022/05/10 11:12:16;;;;;;;0.10;0.10;;;;;;;29.47;27.25;100584.47;5095251;28;20106;-80
2022/05/10 11:15:01;;;;;;;0.10;0.10;;;;;;;29.53;26.84;100571.09;5113729;28;20035;-81
2022/05/10 11:17:41;;;;;;;0.10;0.10;;;;;;;28.90;28.24;100575.72;5096419;28;20054;-80
2022/05/10 11:20:47;;;;;;;0.10;0.10;;;;;;;29.08;28.30;100572.81;5098398;28;20035;-82
2022/05/10 11:23:34;;;;;;;0.10;0.10;;;;;;;29.26;28.24;100562.59;5112901;28;20024;-82
2022/05/10 11:26:24;;;;;;;0.10;0.10;;;;;;;28.70;28.45;100571.28;5096395;28;20054;-83
2022/05/10 11:29:32;;;;;;;0.10;0.10;;;;;;;29.17;28.03;100566.28;5096750;28;20016;-82
2022/05/10 11:32:10;;;;;;;0.10;0.10;;;;;;;29.08;28.37;100549.13;5112812;28;20024;-84
2022/05/10 11:34:54;;;;;;;0.10;0.10;;;;;;;30.02;27.28;100564.91;5113387;28;20040;-82
2022/05/10 11:37:40;;;;;;;0.10;0.10;;;;;;;29.93;26.96;100564.97;5095828;28;20027;-84
2022/05/10 11:40:33;;;;;;;0.10;0.10;;;;;;;29.37;27.07;100568.59;5112923;28;20435;-80
2022/05/10 11:43:40;;;;;;;0.10;0.10;;;;;;;28.69;28.06;100560.31;5096839;28;20020;-84
2022/05/10 11:46:31;;;;;;;0.10;0.10;;;;;;;29.40;27.67;100559.00;5090121;28;20086;-81
2022/05/10 11:49:03;;;;;;;0.10;0.10;;;;;;;28.33;29.20;100549.69;5112459;28;20032;-81
2022/05/10 11:51:46;;;;;;;0.10;0.10;;;;;;;29.01;28.42;100547.38;5112818;28;20032;-82
2022/05/10 11:54:16;;;;;;;0.10;0.10;;;;;;;29.25;28.32;100538.88;5112359;28;20066;-82
2022/05/10 11:56:44;;;;;;;0.10;0.10;;;;;;;28.66;29.25;100527.75;5112483;28;20024;-82
2022/05/10 11:59:24;;;;;;;0.10;0.10;;;;;;;29.12;28.94;100530.47;5097069;28;20039;-83
2022/05/10 12:01:55;;;;;;;0.10;0.10;;;;;;;29.24;28.75;100537.28;5095623;28;20107;-80
2022/05/10 12:04:44;;;;;;;0.10;0.10;;;;;;;29.29;28.69;100532.97;5112498;28;20024;-84
2022/05/10 12:07:23;;;;;;;0.15;0.15;;;;;;;29.47;28.72;100530.81;5096147;28;20143;-84
2022/05/10 12:09:51;;;;;;;0.10;0.10;;;;;;;29.46;28.82;100508.38;5111486;28;20032;-83
2022/05/10 12:12:32;;;;;;;0.10;0.10;;;;;;;28.83;29.25;100490.16;5111514;28;20024;-80
2022/05/10 12:21:19;;;;;;;0.15;0.15;;;;;;;28.61;27.61;100499.75;5096212;28;20110;-80
2022/05/10 12:24:07;;;;;;;0.10;0.10;;;;;;;28.88;27.88;100507.47;5112011;28;20028;-85
2022/05/10 12:27:03;;;;;;;0.10;0.10;;;;;;;27.43;28.78;100484.06;5112230;28;20020;-79
2022/05/10 12:29:38;;;;;;;0.10;0.10;;;;;;;27.41;29.29;100510.28;5070951;28;20127;-83
2022/05/10 12:32:38;;;;;;;0.10;0.10;;;;;;;27.36;29.64;100501.53;5112289;28;20407;-82
2022/05/10 12:35:07;;;;;;;0.10;0.10;;;;;;;26.74;30.09;100507.22;5112054;28;20422;-82
2022/05/10 12:37:41;;;;;;;0.10;0.10;;;;;;;26.44;30.29;100500.25;5111821;28;20499;-78
2022/05/10 12:40:09;;;;;;;0.17;0.17;;;;;;;27.14;29.55;100499.53;5111833;28;20038;-78